sensor_id;sensor_type;location;lat;lon;timestamp;temperature;humidity
14755;DHT22;7469;50.906;6.952;2024-03-07T00:01:59;7.30;99.90
14755;DHT22;7469;50.906;6.952;2024-03-07T00:04:27;7.30;99.90
14755;DHT22;7469;50.906;6.952;2024-03-07T00:06:55;7.20;99.90
14755;DHT22;7469;50.906;6.952;2024-03-07T00:09:23;7.20;99.90
14755;DHT22;7469;50.906;6.952;2024-03-07T00:11:52;7.20;99.90
14755;DHT22;7469;50.906;6.952;2024-03-07T00:14:21;7.10;99.90
14755;DHT22;7469;50.906;6.952;2024-03-07T00:16:54;7.10;99.90
14755;DHT22;7469;50.906;6.952;2024-03-07T00:19:22;7.10;99.90
14755;DHT22;7469;50.906;6.952;2024-03-07T00:21:52;7.20;99.90
14755;DHT22;7469;50.906;6.952;2024-03-07T00:24:21;7.20;99.90
14755;DHT22;7469;50.906;6.952;2024-03-07T00:26:49;7.20;99.90
14755;DHT22;7469;50.906;6.952;2024-03-07T00:29:19;7.20;99.90
14755;DHT22;7469;50.906;6.952;2024-03-07T00:31:47;7.20;99.90
14755;DHT22;7469;50.906;6.952;2024-03-07T00:34:15;7.20;99.90
14755;DHT22;7469;50.906;6.952;2024-03-07T00:36:51;7.20;99.90
14755;DHT22;7469;50.906;6.952;2024-03-07T00:39:19;7.20;99.90
14755;DHT22;7469;50.906;6.952;2024-03-07T00:41:47;7.10;99.90
14755;DHT22;7469;50.906;6.952;2024-03-07T00:44:15;7.10;99.90
14755;DHT22;7469;50.906;6.952;2024-03-07T00:46:45;7.00;99.90
14755;DHT22;7469;50.906;6.952;2024-03-07T00:49:13;7.00;99.90
14755;DHT22;7469;50.906;6.952;2024-03-07T00:51:41;7.00;99.90
14755;DHT22;7469;50.906;6.952;2024-03-07T00:54:09;6.90;99.90
14755;DHT22;7469;50.906;6.952;2024-03-07T00:56:39;7.00;99.90
14755;DHT22;7469;50.906;6.952;2024-03-07T00:59:07;6.90;99.90
14755;DHT22;7469;50.906;6.952;2024-03-07T01:01:35;6.90;99.90
14755;DHT22;7469;50.906;6.952;2024-03-07T01:04:06;6.90;99.90
14755;DHT22;7469;50.906;6.952;2024-03-07T01:06:34;6.90;99.90
14755;DHT22;7469;50.906;6.952;2024-03-07T01:09:03;6.80;99.90
14755;DHT22;7469;50.906;6.952;2024-03-07T01:11:31;6.80;99.90
14755;DHT22;7469;50.906;6.952;2024-03-07T01:13:59;6.80;99.90
14755;DHT22;7469;50.906;6.952;2024-03-07T01:16:27;6.80;99.90
14755;DHT22;7469;50.906;6.952;2024-03-07T01:18:55;6.80;99.90
14755;DHT22;7469;50.906;6.952;2024-03-07T01:21:25;6.80;99.90
14755;DHT22;7469;50.906;6.952;2024-03-07T01:23:53;6.80;99.90
14755;DHT22;7469;50.906;6.952;2024-03-07T01:26:21;6.80;99.90
14755;DHT22;7469;50.906;6.952;2024-03-07T01:28:51;6.80;99.90
14755;DHT22;7469;50.906;6.952;2024-03-07T01:31:19;6.80;99.90
14755;DHT22;7469;50.906;6.952;2024-03-07T01:33:47;6.70;99.90
14755;DHT22;7469;50.906;6.952;2024-03-07T01:36:15;6.70;99.90
14755;DHT22;7469;50.906;6.952;2024-03-07T01:38:45;6.70;99.90
14755;DHT22;7469;50.906;6.952;2024-03-07T01:41:13;6.70;99.90
14755;DHT22;7469;50.906;6.952;2024-03-07T01:43:41;6.70;99.90
14755;DHT22;7469;50.906;6.952;2024-03-07T01:46:10;6.80;99.90
14755;DHT22;7469;50.906;6.952;2024-03-07T01:48:38;6.80;99.90
14755;DHT22;7469;50.906;6.952;2024-03-07T01:51:07;6.80;99.90
14755;DHT22;7469;50.906;6.952;2024-03-07T01:53:36;6.80;99.90
14755;DHT22;7469;50.906;6.952;2024-03-07T01:56:06;6.80;99.90
14755;DHT22;7469;50.906;6.952;2024-03-07T01:58:35;6.80;99.90
14755;DHT22;7469;50.906;6.952;2024-03-07T02:01:04;6.80;99.90
14755;DHT22;7469;50.906;6.952;2024-03-07T02:03:33;6.70;99.90
14755;DHT22;7469;50.906;6.952;2024-03-07T02:06:03;6.70;99.90
14755;DHT22;7469;50.906;6.952;2024-03-07T02:08:31;6.70;99.90
14755;DHT22;7469;50.906;6.952;2024-03-07T02:10:59;6.70;99.90
14755;DHT22;7469;50.906;6.952;2024-03-07T02:13:28;6.70;99.90
14755;DHT22;7469;50.906;6.952;2024-03-07T02:15:58;6.70;99.90
14755;DHT22;7469;50.906;6.952;2024-03-07T02:18:26;6.60;99.90
14755;DHT22;7469;50.906;6.952;2024-03-07T02:20:55;6.60;99.90
14755;DHT22;7469;50.906;6.952;2024-03-07T02:23:23;6.60;99.90
14755;DHT22;7469;50.906;6.952;2024-03-07T02:25:51;6.50;99.90
14755;DHT22;7469;50.906;6.952;2024-03-07T02:28:19;6.50;99.90
14755;DHT22;7469;50.906;6.952;2024-03-07T02:30:47;6.50;99.90
14755;DHT22;7469;50.906;6.952;2024-03-07T02:33:15;6.40;99.90
14755;DHT22;7469;50.906;6.952;2024-03-07T02:35:43;6.40;99.90
14755;DHT22;7469;50.906;6.952;2024-03-07T02:38:13;6.30;99.90
14755;DHT22;7469;50.906;6.952;2024-03-07T02:40:41;6.30;99.90
14755;DHT22;7469;50.906;6.952;2024-03-07T02:43:09;6.20;99.90
14755;DHT22;7469;50.906;6.952;2024-03-07T02:45:37;6.20;99.90
14755;DHT22;7469;50.906;6.952;2024-03-07T02:48:05;6.20;99.90
14755;DHT22;7469;50.906;6.952;2024-03-07T02:50:36;6.20;99.90
14755;DHT22;7469;50.906;6.952;2024-03-07T02:53:04;6.20;99.90
14755;DHT22;7469;50.906;6.952;2024-03-07T02:55:34;6.20;99.90
14755;DHT22;7469;50.906;6.952;2024-03-07T02:58:02;6.20;99.90
14755;DHT22;7469;50.906;6.952;2024-03-07T03:00:30;6.20;99.90
14755;DHT22;7469;50.906;6.952;2024-03-07T03:02:58;6.20;99.90
14755;DHT22;7469;50.906;6.952;2024-03-07T03:05:26;6.20;99.90
14755;DHT22;7469;50.906;6.952;2024-03-07T03:07:54;6.20;99.90
14755;DHT22;7469;50.906;6.952;2024-03-07T03:10:23;6.10;99.90
14755;DHT22;7469;50.906;6.952;2024-03-07T03:12:55;5.90;99.90
14755;DHT22;7469;50.906;6.952;2024-03-07T03:15:24;5.90;99.90
14755;DHT22;7469;50.906;6.952;2024-03-07T03:17:53;5.90;99.90
14755;DHT22;7469;50.906;6.952;2024-03-07T03:20:21;5.90;99.90
14755;DHT22;7469;50.906;6.952;2024-03-07T03:22:52;5.80;99.90
14755;DHT22;7469;50.906;6.952;2024-03-07T03:25:41;5.70;99.90
14755;DHT22;7469;50.906;6.952;2024-03-07T03:28:11;5.70;99.90
14755;DHT22;7469;50.906;6.952;2024-03-07T03:30:40;5.70;99.90
14755;DHT22;7469;50.906;6.952;2024-03-07T03:33:09;5.70;99.90
14755;DHT22;7469;50.906;6.952;2024-03-07T03:35:37;5.60;99.90
14755;DHT22;7469;50.906;6.952;2024-03-07T03:38:06;5.40;99.90
14755;DHT22;7469;50.906;6.952;2024-03-07T03:40:35;5.30;99.90
14755;DHT22;7469;50.906;6.952;2024-03-07T03:43:03;5.30;99.90
14755;DHT22;7469;50.906;6.952;2024-03-07T03:45:32;5.30;99.90
14755;DHT22;7469;50.906;6.952;2024-03-07T03:48:01;5.30;99.90
14755;DHT22;7469;50.906;6.952;2024-03-07T03:50:30;5.30;99.90
14755;DHT22;7469;50.906;6.952;2024-03-07T03:52:58;5.40;99.90
14755;DHT22;7469;50.906;6.952;2024-03-07T03:55:28;5.30;99.90
14755;DHT22;7469;50.906;6.952;2024-03-07T03:57:55;5.30;99.90
14755;DHT22;7469;50.906;6.952;2024-03-07T04:00:23;5.20;99.90
14755;DHT22;7469;50.906;6.952;2024-03-07T04:02:53;5.10;99.90
14755;DHT22;7469;50.906;6.952;2024-03-07T04:05:21;5.00;99.90
14755;DHT22;7469;50.906;6.952;2024-03-07T04:07:49;5.00;99.90
14755;DHT22;7469;50.906;6.952;2024-03-07T04:10:17;5.00;99.90
14755;DHT22;7469;50.906;6.952;2024-03-07T04:12:45;4.90;99.90
14755;DHT22;7469;50.906;6.952;2024-03-07T04:15:14;4.90;99.90
14755;DHT22;7469;50.906;6.952;2024-03-07T04:17:45;4.90;99.90
14755;DHT22;7469;50.906;6.952;2024-03-07T04:20:16;4.90;99.90
14755;DHT22;7469;50.906;6.952;2024-03-07T04:22:46;4.80;99.90
14755;DHT22;7469;50.906;6.952;2024-03-07T04:25:15;4.80;99.90
14755;DHT22;7469;50.906;6.952;2024-03-07T04:27:43;4.80;99.90
14755;DHT22;7469;50.906;6.952;2024-03-07T04:30:12;4.80;99.90
14755;DHT22;7469;50.906;6.952;2024-03-07T04:32:42;4.70;99.90
14755;DHT22;7469;50.906;6.952;2024-03-07T04:35:10;4.80;99.90
14755;DHT22;7469;50.906;6.952;2024-03-07T04:37:43;4.80;99.90
14755;DHT22;7469;50.906;6.952;2024-03-07T04:40:12;4.80;99.90
14755;DHT22;7469;50.906;6.952;2024-03-07T04:42:46;4.80;99.90
14755;DHT22;7469;50.906;6.952;2024-03-07T04:45:15;4.80;99.90
14755;DHT22;7469;50.906;6.952;2024-03-07T04:47:44;4.80;99.90
14755;DHT22;7469;50.906;6.952;2024-03-07T04:50:13;4.80;99.90
14755;DHT22;7469;50.906;6.952;2024-03-07T04:52:47;4.80;99.90
14755;DHT22;7469;50.906;6.952;2024-03-07T04:55:16;4.80;99.90
14755;DHT22;7469;50.906;6.952;2024-03-07T04:57:44;4.80;99.90
14755;DHT22;7469;50.906;6.952;2024-03-07T05:00:14;4.80;99.90
14755;DHT22;7469;50.906;6.952;2024-03-07T05:02:45;4.70;99.90
14755;DHT22;7469;50.906;6.952;2024-03-07T05:05:14;4.70;99.90
14755;DHT22;7469;50.906;6.952;2024-03-07T05:07:49;4.70;99.90
14755;DHT22;7469;50.906;6.952;2024-03-07T05:10:18;4.70;99.90
14755;DHT22;7469;50.906;6.952;2024-03-07T05:12:46;4.80;99.90
14755;DHT22;7469;50.906;6.952;2024-03-07T05:15:14;4.80;99.90
14755;DHT22;7469;50.906;6.952;2024-03-07T05:17:42;4.80;99.90
14755;DHT22;7469;50.906;6.952;2024-03-07T05:20:11;4.90;99.90
14755;DHT22;7469;50.906;6.952;2024-03-07T05:22:40;4.80;99.90
14755;DHT22;7469;50.906;6.952;2024-03-07T05:25:13;4.70;99.90
14755;DHT22;7469;50.906;6.952;2024-03-07T05:27:43;4.70;99.90
14755;DHT22;7469;50.906;6.952;2024-03-07T05:30:12;4.60;99.90
14755;DHT22;7469;50.906;6.952;2024-03-07T05:32:42;4.50;99.90
14755;DHT22;7469;50.906;6.952;2024-03-07T05:35:10;4.50;99.90
14755;DHT22;7469;50.906;6.952;2024-03-07T05:37:38;4.60;99.90
14755;DHT22;7469;50.906;6.952;2024-03-07T05:40:09;4.60;99.90
14755;DHT22;7469;50.906;6.952;2024-03-07T05:42:38;4.60;99.90
14755;DHT22;7469;50.906;6.952;2024-03-07T05:45:06;4.70;99.90
14755;DHT22;7469;50.906;6.952;2024-03-07T05:47:35;4.80;99.90
14755;DHT22;7469;50.906;6.952;2024-03-07T05:50:04;4.80;99.90
14755;DHT22;7469;50.906;6.952;2024-03-07T05:52:34;4.90;99.90
14755;DHT22;7469;50.906;6.952;2024-03-07T05:55:02;4.90;99.90
14755;DHT22;7469;50.906;6.952;2024-03-07T05:57:30;4.90;99.90
14755;DHT22;7469;50.906;6.952;2024-03-07T05:59:59;4.90;99.90
14755;DHT22;7469;50.906;6.952;2024-03-07T06:02:27;5.00;99.90
14755;DHT22;7469;50.906;6.952;2024-03-07T06:04:55;5.10;99.90
14755;DHT22;7469;50.906;6.952;2024-03-07T06:07:23;5.10;99.90
14755;DHT22;7469;50.906;6.952;2024-03-07T06:09:51;5.20;99.90
14755;DHT22;7469;50.906;6.952;2024-03-07T06:12:19;5.30;99.90
14755;DHT22;7469;50.906;6.952;2024-03-07T06:14:53;5.30;99.90
14755;DHT22;7469;50.906;6.952;2024-03-07T06:17:23;5.30;99.90
14755;DHT22;7469;50.906;6.952;2024-03-07T06:19:51;5.30;99.90
14755;DHT22;7469;50.906;6.952;2024-03-07T06:22:19;5.30;99.90
14755;DHT22;7469;50.906;6.952;2024-03-07T06:24:47;5.30;99.90
14755;DHT22;7469;50.906;6.952;2024-03-07T06:27:15;5.30;99.90
14755;DHT22;7469;50.906;6.952;2024-03-07T06:29:55;5.30;99.90
14755;DHT22;7469;50.906;6.952;2024-03-07T06:32:24;5.20;99.90
14755;DHT22;7469;50.906;6.952;2024-03-07T06:34:53;5.20;99.90
14755;DHT22;7469;50.906;6.952;2024-03-07T06:37:21;5.30;99.90
14755;DHT22;7469;50.906;6.952;2024-03-07T06:39:49;5.30;99.90
14755;DHT22;7469;50.906;6.952;2024-03-07T06:42:16;5.40;99.90
14755;DHT22;7469;50.906;6.952;2024-03-07T06:44:44;5.40;99.90
14755;DHT22;7469;50.906;6.952;2024-03-07T06:47:13;5.40;99.90
14755;DHT22;7469;50.906;6.952;2024-03-07T06:49:42;5.30;99.90
14755;DHT22;7469;50.906;6.952;2024-03-07T06:52:10;5.20;99.90
14755;DHT22;7469;50.906;6.952;2024-03-07T06:54:38;5.20;99.90
14755;DHT22;7469;50.906;6.952;2024-03-07T06:57:06;5.10;99.90
14755;DHT22;7469;50.906;6.952;2024-03-07T06:59:35;5.20;99.90
14755;DHT22;7469;50.906;6.952;2024-03-07T07:02:03;5.10;99.90
14755;DHT22;7469;50.906;6.952;2024-03-07T07:04:31;5.20;99.90
14755;DHT22;7469;50.906;6.952;2024-03-07T07:07:09;5.30;99.90
14755;DHT22;7469;50.906;6.952;2024-03-07T07:09:40;5.30;99.90
14755;DHT22;7469;50.906;6.952;2024-03-07T07:12:08;5.30;99.90
14755;DHT22;7469;50.906;6.952;2024-03-07T07:14:36;5.20;99.90
14755;DHT22;7469;50.906;6.952;2024-03-07T07:17:06;5.20;99.90
14755;DHT22;7469;50.906;6.952;2024-03-07T07:19:37;5.30;99.90
14755;DHT22;7469;50.906;6.952;2024-03-07T07:22:04;5.30;99.90
14755;DHT22;7469;50.906;6.952;2024-03-07T07:24:34;5.50;99.90
14755;DHT22;7469;50.906;6.952;2024-03-07T07:27:02;5.50;99.90
14755;DHT22;7469;50.906;6.952;2024-03-07T07:29:30;5.60;99.90
14755;DHT22;7469;50.906;6.952;2024-03-07T07:31:58;5.70;99.90
14755;DHT22;7469;50.906;6.952;2024-03-07T07:34:26;5.70;99.90
14755;DHT22;7469;50.906;6.952;2024-03-07T07:36:54;5.80;99.90
14755;DHT22;7469;50.906;6.952;2024-03-07T07:39:23;5.90;99.90
14755;DHT22;7469;50.906;6.952;2024-03-07T07:41:52;6.00;99.90
14755;DHT22;7469;50.906;6.952;2024-03-07T07:44:20;6.00;99.90
14755;DHT22;7469;50.906;6.952;2024-03-07T07:46:48;6.00;99.90
14755;DHT22;7469;50.906;6.952;2024-03-07T07:49:16;6.10;99.90
14755;DHT22;7469;50.906;6.952;2024-03-07T07:51:46;6.20;99.90
14755;DHT22;7469;50.906;6.952;2024-03-07T07:54:15;6.20;99.90
14755;DHT22;7469;50.906;6.952;2024-03-07T07:56:44;6.30;99.90
14755;DHT22;7469;50.906;6.952;2024-03-07T07:59:15;6.30;99.90
14755;DHT22;7469;50.906;6.952;2024-03-07T08:01:43;6.40;99.90
14755;DHT22;7469;50.906;6.952;2024-03-07T08:04:11;6.40;99.90
14755;DHT22;7469;50.906;6.952;2024-03-07T08:06:39;6.50;99.90
14755;DHT22;7469;50.906;6.952;2024-03-07T08:09:07;6.60;99.90
14755;DHT22;7469;50.906;6.952;2024-03-07T08:11:37;6.70;99.90
14755;DHT22;7469;50.906;6.952;2024-03-07T08:14:05;6.80;99.90
14755;DHT22;7469;50.906;6.952;2024-03-07T08:16:34;6.80;99.90
14755;DHT22;7469;50.906;6.952;2024-03-07T08:19:05;6.80;99.90
14755;DHT22;7469;50.906;6.952;2024-03-07T08:21:33;6.90;99.90
14755;DHT22;7469;50.906;6.952;2024-03-07T08:24:01;7.00;99.90
14755;DHT22;7469;50.906;6.952;2024-03-07T08:26:32;7.10;99.90
14755;DHT22;7469;50.906;6.952;2024-03-07T08:29:00;7.20;99.90
14755;DHT22;7469;50.906;6.952;2024-03-07T08:31:28;7.20;99.90
14755;DHT22;7469;50.906;6.952;2024-03-07T08:33:58;7.20;99.90
14755;DHT22;7469;50.906;6.952;2024-03-07T08:36:26;7.40;99.90
14755;DHT22;7469;50.906;6.952;2024-03-07T08:38:54;7.50;99.90
14755;DHT22;7469;50.906;6.952;2024-03-07T08:41:22;7.60;99.90
14755;DHT22;7469;50.906;6.952;2024-03-07T08:43:50;7.60;99.90
14755;DHT22;7469;50.906;6.952;2024-03-07T08:46:18;7.60;99.90
14755;DHT22;7469;50.906;6.952;2024-03-07T08:48:46;7.80;99.90
14755;DHT22;7469;50.906;6.952;2024-03-07T08:51:16;7.80;99.90
14755;DHT22;7469;50.906;6.952;2024-03-07T08:53:44;8.00;99.90
14755;DHT22;7469;50.906;6.952;2024-03-07T08:56:12;8.00;99.90
14755;DHT22;7469;50.906;6.952;2024-03-07T08:58:40;8.10;99.90
14755;DHT22;7469;50.906;6.952;2024-03-07T09:01:10;8.20;99.90
14755;DHT22;7469;50.906;6.952;2024-03-07T09:03:38;8.20;99.90
14755;DHT22;7469;50.906;6.952;2024-03-07T09:06:06;8.20;99.90
14755;DHT22;7469;50.906;6.952;2024-03-07T09:08:35;8.20;99.90
14755;DHT22;7469;50.906;6.952;2024-03-07T09:11:03;8.30;99.90
14755;DHT22;7469;50.906;6.952;2024-03-07T09:13:31;8.40;99.90
14755;DHT22;7469;50.906;6.952;2024-03-07T09:15:59;8.60;99.90
14755;DHT22;7469;50.906;6.952;2024-03-07T09:18:31;8.70;99.90
14755;DHT22;7469;50.906;6.952;2024-03-07T09:20:59;8.90;99.90
14755;DHT22;7469;50.906;6.952;2024-03-07T09:23:27;9.00;99.90
14755;DHT22;7469;50.906;6.952;2024-03-07T09:25:56;9.00;99.90
14755;DHT22;7469;50.906;6.952;2024-03-07T09:28:25;9.00;99.90
14755;DHT22;7469;50.906;6.952;2024-03-07T09:30:53;9.30;99.90
14755;DHT22;7469;50.906;6.952;2024-03-07T09:33:22;9.30;99.90
14755;DHT22;7469;50.906;6.952;2024-03-07T09:35:54;9.40;99.90
14755;DHT22;7469;50.906;6.952;2024-03-07T09:38:25;9.40;99.90
14755;DHT22;7469;50.906;6.952;2024-03-07T09:40:55;9.50;99.90
14755;DHT22;7469;50.906;6.952;2024-03-07T09:43:24;9.60;99.90
14755;DHT22;7469;50.906;6.952;2024-03-07T09:45:54;9.60;99.90
14755;DHT22;7469;50.906;6.952;2024-03-07T09:48:23;9.80;99.90
14755;DHT22;7469;50.906;6.952;2024-03-07T09:50:55;10.10;99.90
14755;DHT22;7469;50.906;6.952;2024-03-07T09:53:25;10.30;99.90
14755;DHT22;7469;50.906;6.952;2024-03-07T09:55:55;10.30;99.90
14755;DHT22;7469;50.906;6.952;2024-03-07T09:58:25;10.60;99.90
14755;DHT22;7469;50.906;6.952;2024-03-07T10:00:56;10.70;99.90
14755;DHT22;7469;50.906;6.952;2024-03-07T10:03:29;11.20;99.90
14755;DHT22;7469;50.906;6.952;2024-03-07T10:05:57;11.20;99.90
14755;DHT22;7469;50.906;6.952;2024-03-07T10:08:28;11.30;99.90
14755;DHT22;7469;50.906;6.952;2024-03-07T10:10:58;10.90;99.90
14755;DHT22;7469;50.906;6.952;2024-03-07T10:13:27;10.60;99.90
14755;DHT22;7469;50.906;6.952;2024-03-07T10:15:56;10.40;99.90
14755;DHT22;7469;50.906;6.952;2024-03-07T10:18:26;10.50;99.90
14755;DHT22;7469;50.906;6.952;2024-03-07T10:20:56;10.50;99.90
14755;DHT22;7469;50.906;6.952;2024-03-07T10:23:24;10.40;99.90
14755;DHT22;7469;50.906;6.952;2024-03-07T10:25:52;10.30;99.90
14755;DHT22;7469;50.906;6.952;2024-03-07T10:28:22;10.10;99.90
14755;DHT22;7469;50.906;6.952;2024-03-07T10:30:50;10.00;99.90
14755;DHT22;7469;50.906;6.952;2024-03-07T10:33:18;10.10;99.90
14755;DHT22;7469;50.906;6.952;2024-03-07T10:35:47;10.40;99.90
14755;DHT22;7469;50.906;6.952;2024-03-07T10:38:16;11.10;99.90
14755;DHT22;7469;50.906;6.952;2024-03-07T10:40:47;12.00;99.90
14755;DHT22;7469;50.906;6.952;2024-03-07T10:43:16;12.70;99.90
14755;DHT22;7469;50.906;6.952;2024-03-07T10:45:49;13.40;99.90
14755;DHT22;7469;50.906;6.952;2024-03-07T10:48:19;14.00;98.50
14755;DHT22;7469;50.906;6.952;2024-03-07T10:50:54;14.50;96.80
14755;DHT22;7469;50.906;6.952;2024-03-07T10:53:31;14.70;93.20
14755;DHT22;7469;50.906;6.952;2024-03-07T10:56:12;14.30;92.00
14755;DHT22;7469;50.906;6.952;2024-03-07T10:58:56;14.40;91.90
14755;DHT22;7469;50.906;6.952;2024-03-07T11:01:30;14.70;91.20
14755;DHT22;7469;50.906;6.952;2024-03-07T11:04:00;15.20;89.90
14755;DHT22;7469;50.906;6.952;2024-03-07T11:06:31;15.40;86.60
14755;DHT22;7469;50.906;6.952;2024-03-07T11:09:02;15.60;84.70
14755;DHT22;7469;50.906;6.952;2024-03-07T11:11:38;15.60;81.00
14755;DHT22;7469;50.906;6.952;2024-03-07T11:14:08;15.70;79.70
14755;DHT22;7469;50.906;6.952;2024-03-07T11:16:39;15.70;78.50
14755;DHT22;7469;50.906;6.952;2024-03-07T11:19:24;15.20;76.70
14755;DHT22;7469;50.906;6.952;2024-03-07T11:21:54;14.40;79.30
14755;DHT22;7469;50.906;6.952;2024-03-07T11:24:24;14.20;81.00
14755;DHT22;7469;50.906;6.952;2024-03-07T11:26:52;13.90;82.40
14755;DHT22;7469;50.906;6.952;2024-03-07T11:29:46;13.60;83.10
14755;DHT22;7469;50.906;6.952;2024-03-07T11:32:16;13.40;84.30
14755;DHT22;7469;50.906;6.952;2024-03-07T11:34:45;12.90;85.80
14755;DHT22;7469;50.906;6.952;2024-03-07T11:37:17;12.70;87.60
14755;DHT22;7469;50.906;6.952;2024-03-07T11:39:50;12.70;88.60
14755;DHT22;7469;50.906;6.952;2024-03-07T11:42:23;12.60;89.60
14755;DHT22;7469;50.906;6.952;2024-03-07T11:44:53;12.50;90.00
14755;DHT22;7469;50.906;6.952;2024-03-07T11:47:24;12.50;90.20
14755;DHT22;7469;50.906;6.952;2024-03-07T11:49:56;12.50;90.20
14755;DHT22;7469;50.906;6.952;2024-03-07T11:52:25;12.50;90.40
14755;DHT22;7469;50.906;6.952;2024-03-07T11:54:54;12.70;90.20
14755;DHT22;7469;50.906;6.952;2024-03-07T11:57:31;12.80;89.00
14755;DHT22;7469;50.906;6.952;2024-03-07T12:00:00;12.90;89.30
14755;DHT22;7469;50.906;6.952;2024-03-07T12:02:37;13.10;88.80
14755;DHT22;7469;50.906;6.952;2024-03-07T12:05:06;13.00;88.60
14755;DHT22;7469;50.906;6.952;2024-03-07T12:07:35;12.90;88.80
14755;DHT22;7469;50.906;6.952;2024-03-07T12:10:04;12.70;89.60
14755;DHT22;7469;50.906;6.952;2024-03-07T12:12:32;12.50;90.30
14755;DHT22;7469;50.906;6.952;2024-03-07T12:15:00;12.60;90.80
14755;DHT22;7469;50.906;6.952;2024-03-07T12:17:40;12.60;90.60
14755;DHT22;7469;50.906;6.952;2024-03-07T12:20:09;12.70;90.80
14755;DHT22;7469;50.906;6.952;2024-03-07T12:22:51;12.60;90.90
14755;DHT22;7469;50.906;6.952;2024-03-07T12:25:20;12.30;90.90
14755;DHT22;7469;50.906;6.952;2024-03-07T12:28:00;12.20;91.50
14755;DHT22;7469;50.906;6.952;2024-03-07T12:30:35;12.10;91.80
14755;DHT22;7469;50.906;6.952;2024-03-07T12:33:07;12.00;92.20
14755;DHT22;7469;50.906;6.952;2024-03-07T12:35:36;11.80;92.40
14755;DHT22;7469;50.906;6.952;2024-03-07T12:38:04;11.60;92.80
14755;DHT22;7469;50.906;6.952;2024-03-07T12:40:32;11.40;93.10
14755;DHT22;7469;50.906;6.952;2024-03-07T12:43:01;11.10;93.70
14755;DHT22;7469;50.906;6.952;2024-03-07T12:45:30;11.00;94.30
14755;DHT22;7469;50.906;6.952;2024-03-07T12:48:00;10.90;94.80
14755;DHT22;7469;50.906;6.952;2024-03-07T12:50:33;10.90;95.20
14755;DHT22;7469;50.906;6.952;2024-03-07T12:53:03;11.00;95.40
14755;DHT22;7469;50.906;6.952;2024-03-07T12:55:32;11.00;95.50
14755;DHT22;7469;50.906;6.952;2024-03-07T12:58:00;11.20;95.50
14755;DHT22;7469;50.906;6.952;2024-03-07T13:00:28;11.50;95.40
14755;DHT22;7469;50.906;6.952;2024-03-07T13:02:56;11.60;95.10
14755;DHT22;7469;50.906;6.952;2024-03-07T13:05:26;11.50;95.00
14755;DHT22;7469;50.906;6.952;2024-03-07T13:07:55;11.50;95.20
14755;DHT22;7469;50.906;6.952;2024-03-07T13:10:23;11.40;95.40
14755;DHT22;7469;50.906;6.952;2024-03-07T13:12:51;11.30;95.70
14755;DHT22;7469;50.906;6.952;2024-03-07T13:15:19;11.20;95.50
14755;DHT22;7469;50.906;6.952;2024-03-07T13:17:49;11.10;95.70
14755;DHT22;7469;50.906;6.952;2024-03-07T13:20:20;11.10;95.70
14755;DHT22;7469;50.906;6.952;2024-03-07T13:22:54;11.00;96.00
14755;DHT22;7469;50.906;6.952;2024-03-07T13:25:24;11.10;96.20
14755;DHT22;7469;50.906;6.952;2024-03-07T13:27:56;11.10;96.20
14755;DHT22;7469;50.906;6.952;2024-03-07T13:30:26;11.10;96.40
14755;DHT22;7469;50.906;6.952;2024-03-07T13:32:55;11.10;96.60
14755;DHT22;7469;50.906;6.952;2024-03-07T13:35:24;11.00;96.70
14755;DHT22;7469;50.906;6.952;2024-03-07T13:37:55;11.00;97.00
14755;DHT22;7469;50.906;6.952;2024-03-07T13:40:24;11.20;97.10
14755;DHT22;7469;50.906;6.952;2024-03-07T13:42:53;11.40;96.80
14755;DHT22;7469;50.906;6.952;2024-03-07T13:45:23;11.60;96.50
14755;DHT22;7469;50.906;6.952;2024-03-07T13:47:54;11.70;96.10
14755;DHT22;7469;50.906;6.952;2024-03-07T13:50:24;11.90;95.40
14755;DHT22;7469;50.906;6.952;2024-03-07T13:53:18;12.20;94.70
14755;DHT22;7469;50.906;6.952;2024-03-07T13:56:23;12.40;94.10
14755;DHT22;7469;50.906;6.952;2024-03-07T13:59:16;12.50;94.40
14755;DHT22;7469;50.906;6.952;2024-03-07T14:01:59;12.40;94.10
14755;DHT22;7469;50.906;6.952;2024-03-07T14:05:08;12.20;94.10
14755;DHT22;7469;50.906;6.952;2024-03-07T14:07:53;12.10;94.20
14755;DHT22;7469;50.906;6.952;2024-03-07T14:10:49;11.90;94.30
14755;DHT22;7469;50.906;6.952;2024-03-07T14:13:45;11.90;94.50
14755;DHT22;7469;50.906;6.952;2024-03-07T14:16:31;11.80;94.50
14755;DHT22;7469;50.906;6.952;2024-03-07T14:22:40;11.60;94.70
14755;DHT22;7469;50.906;6.952;2024-03-07T14:25:30;11.40;94.60
14755;DHT22;7469;50.906;6.952;2024-03-07T14:28:32;11.20;95.00
14755;DHT22;7469;50.906;6.952;2024-03-07T14:31:06;11.20;95.40
14755;DHT22;7469;50.906;6.952;2024-03-07T14:34:01;11.30;95.70
14755;DHT22;7469;50.906;6.952;2024-03-07T14:36:37;11.30;95.80
14755;DHT22;7469;50.906;6.952;2024-03-07T14:39:06;11.30;96.00
14755;DHT22;7469;50.906;6.952;2024-03-07T14:41:48;11.30;96.10
14755;DHT22;7469;50.906;6.952;2024-03-07T14:44:19;11.40;96.00
14755;DHT22;7469;50.906;6.952;2024-03-07T14:46:52;11.20;96.10
14755;DHT22;7469;50.906;6.952;2024-03-07T14:49:21;11.20;96.30
14755;DHT22;7469;50.906;6.952;2024-03-07T14:51:50;11.20;96.50
14755;DHT22;7469;50.906;6.952;2024-03-07T14:54:27;11.10;96.60
14755;DHT22;7469;50.906;6.952;2024-03-07T14:56:55;11.10;96.60
14755;DHT22;7469;50.906;6.952;2024-03-07T14:59:25;11.10;96.40
14755;DHT22;7469;50.906;6.952;2024-03-07T15:01:53;11.20;96.20
14755;DHT22;7469;50.906;6.952;2024-03-07T15:04:22;11.40;96.10
14755;DHT22;7469;50.906;6.952;2024-03-07T15:06:50;11.40;95.90
14755;DHT22;7469;50.906;6.952;2024-03-07T15:09:19;11.40;95.60
14755;DHT22;7469;50.906;6.952;2024-03-07T15:11:47;11.30;95.90
14755;DHT22;7469;50.906;6.952;2024-03-07T15:14:16;11.40;96.00
14755;DHT22;7469;50.906;6.952;2024-03-07T15:17:00;11.30;96.10
14755;DHT22;7469;50.906;6.952;2024-03-07T15:19:30;11.40;96.20
14755;DHT22;7469;50.906;6.952;2024-03-07T15:21:58;11.30;96.00
14755;DHT22;7469;50.906;6.952;2024-03-07T15:24:26;11.40;95.90
14755;DHT22;7469;50.906;6.952;2024-03-07T15:26:54;11.40;95.90
14755;DHT22;7469;50.906;6.952;2024-03-07T15:29:24;11.20;96.00
14755;DHT22;7469;50.906;6.952;2024-03-07T15:31:54;11.20;96.10
14755;DHT22;7469;50.906;6.952;2024-03-07T15:34:24;11.20;96.20
14755;DHT22;7469;50.906;6.952;2024-03-07T15:37:00;11.20;96.20
14755;DHT22;7469;50.906;6.952;2024-03-07T15:39:28;11.10;96.20
14755;DHT22;7469;50.906;6.952;2024-03-07T15:41:57;11.10;96.30
14755;DHT22;7469;50.906;6.952;2024-03-07T15:44:26;11.10;96.20
14755;DHT22;7469;50.906;6.952;2024-03-07T15:46:54;11.00;96.10
14755;DHT22;7469;50.906;6.952;2024-03-07T15:49:23;11.00;96.10
14755;DHT22;7469;50.906;6.952;2024-03-07T15:51:52;11.00;96.10
14755;DHT22;7469;50.906;6.952;2024-03-07T15:54:20;10.90;96.10
14755;DHT22;7469;50.906;6.952;2024-03-07T15:56:50;10.90;96.20
14755;DHT22;7469;50.906;6.952;2024-03-07T15:59:18;10.80;96.40
14755;DHT22;7469;50.906;6.952;2024-03-07T16:01:46;10.80;96.50
14755;DHT22;7469;50.906;6.952;2024-03-07T16:04:15;10.80;96.50
14755;DHT22;7469;50.906;6.952;2024-03-07T16:06:45;10.70;96.40
14755;DHT22;7469;50.906;6.952;2024-03-07T16:09:13;10.70;96.40
14755;DHT22;7469;50.906;6.952;2024-03-07T16:11:49;10.60;96.50
14755;DHT22;7469;50.906;6.952;2024-03-07T16:14:17;10.60;96.70
14755;DHT22;7469;50.906;6.952;2024-03-07T16:16:45;10.60;96.90
14755;DHT22;7469;50.906;6.952;2024-03-07T16:19:13;10.60;96.90